createdAt,value
2018-08-28T00:00:42.092Z,90.10
2018-08-28T00:03:12.185Z,90.20
2018-08-28T00:05:42.272Z,90.20
2018-08-28T00:08:12.448Z,90.20
2018-08-28T00:10:42.676Z,90.30
2018-08-28T00:13:12.760Z,90.20
2018-08-28T00:15:42.904Z,90.40
2018-08-28T00:18:13.028Z,90.10
2018-08-28T00:20:43.158Z,90.20
2018-08-28T00:23:13.240Z,90.00
2018-08-28T00:25:43.320Z,89.90
2018-08-28T00:28:13.403Z,90.20
2018-08-28T00:30:43.464Z,90.40
2018-08-28T00:33:13.528Z,90.40
2018-08-28T00:35:43.562Z,90.30
2018-08-28T00:38:13.712Z,90.30
2018-08-28T00:40:43.716Z,90.20
2018-08-28T00:43:13.802Z,90.00
2018-08-28T00:45:43.884Z,90.00
2018-08-28T00:48:13.980Z,89.80
2018-08-28T00:50:44.065Z,89.00
2018-08-28T00:53:14.156Z,89.30
2018-08-28T00:55:44.242Z,88.70
2018-08-28T00:58:14.380Z,89.30
2018-08-28T01:00:44.508Z,90.10
2018-08-28T01:03:14.540Z,90.50
2018-08-28T01:05:44.637Z,91.00
2018-08-28T01:08:14.668Z,91.40
2018-08-28T01:10:44.728Z,91.40
2018-08-28T01:13:14.796Z,91.60
2018-08-28T01:15:44.872Z,91.80
2018-08-28T01:18:14.952Z,92.40
2018-08-28T01:20:45.057Z,92.90
2018-08-28T01:23:15.124Z,93.30
2018-08-28T01:25:45.204Z,93.50
2018-08-28T01:28:15.345Z,93.80
2018-08-28T01:30:45.420Z,94.00
2018-08-28T01:33:15.505Z,94.00
2018-08-28T01:35:45.915Z,94.20
2018-08-28T01:38:15.992Z,94.40
2018-08-28T01:40:46.076Z,94.50
2018-08-28T01:43:21.492Z,94.50
2018-08-28T01:45:52.256Z,94.80
2018-08-28T01:48:22.544Z,95.30
2018-08-28T01:50:52.683Z,95.00
2018-08-28T01:53:22.878Z,95.10
2018-08-28T01:55:52.961Z,95.20
2018-08-28T01:58:23.076Z,95.40
2018-08-28T02:00:53.144Z,95.60
2018-08-28T02:03:23.236Z,95.50
2018-08-28T02:05:53.320Z,95.60
2018-08-28T02:08:24.037Z,95.80
2018-08-28T02:10:54.110Z,95.80
2018-08-28T02:13:24.685Z,95.80
2018-08-28T02:15:54.725Z,95.70
2018-08-28T02:18:24.800Z,95.60
2018-08-28T02:20:54.848Z,95.50
2018-08-28T02:23:24.932Z,95.40
2018-08-28T02:25:54.997Z,95.30
2018-08-28T02:28:25.071Z,95.70
2018-08-28T02:30:55.183Z,95.70
2018-08-28T02:33:25.408Z,95.80
2018-08-28T02:35:55.496Z,95.80
2018-08-28T02:38:25.552Z,95.90
2018-08-28T02:40:55.640Z,96.10
2018-08-28T02:43:25.708Z,96.00
2018-08-28T02:45:55.790Z,96.10
2018-08-28T02:48:25.847Z,95.90
2018-08-28T02:50:56.053Z,96.10
2018-08-28T02:53:26.131Z,96.00
2018-08-28T02:55:56.776Z,95.80
2018-08-28T02:58:26.851Z,95.80
2018-08-28T03:00:56.961Z,95.70
2018-08-28T03:03:27.050Z,95.90
2018-08-28T03:05:57.168Z,95.80
2018-08-28T03:08:27.316Z,95.70
2018-08-28T03:10:57.508Z,95.80
2018-08-28T03:13:27.628Z,95.90
2018-08-28T03:15:57.775Z,95.60
2018-08-28T03:18:28.022Z,95.70
2018-08-28T03:20:58.105Z,95.80
2018-08-28T03:23:28.208Z,95.50
2018-08-28T03:25:58.545Z,95.70
2018-08-28T03:28:28.639Z,95.70
2018-08-28T03:30:59.329Z,96.00
2018-08-28T03:33:29.438Z,96.00
2018-08-28T03:36:00.294Z,95.90
2018-08-28T03:38:31.176Z,96.00
2018-08-28T03:41:01.420Z,96.10
2018-08-28T03:43:31.600Z,96.10
2018-08-28T03:46:02.468Z,96.50
2018-08-28T03:48:33.143Z,96.60
2018-08-28T03:51:04.870Z,96.60
2018-08-28T03:53:36.564Z,96.70
2018-08-28T03:56:07.248Z,96.70
2018-08-28T03:58:38.033Z,96.40
2018-08-28T04:01:08.930Z,96.00
2018-08-28T04:03:40.170Z,95.80
2018-08-28T04:06:12.236Z,96.00
2018-08-28T04:08:43.878Z,95.70
2018-08-28T04:11:14.036Z,95.50
2018-08-28T04:13:44.904Z,95.40
2018-08-28T04:16:15.486Z,95.20
2018-08-28T04:18:46.940Z,95.10
2018-08-28T04:21:17.721Z,95.10
2018-08-28T04:23:48.430Z,94.90
2018-08-28T04:26:20.228Z,94.90
2018-08-28T04:28:51.176Z,94.90
2018-08-28T04:31:22.389Z,94.70
2018-08-28T04:33:53.338Z,94.50
2018-08-28T04:36:25.244Z,94.30
2018-08-28T04:38:56.576Z,94.70
2018-08-28T04:41:26.790Z,94.50
2018-08-28T04:43:56.969Z,94.60
2018-08-28T04:46:27.236Z,94.40
2018-08-28T04:48:58.825Z,94.20
2018-08-28T04:51:29.692Z,94.20
2018-08-28T04:54:00.473Z,94.30
2018-08-28T04:56:31.336Z,93.90
2018-08-28T04:59:02.329Z,93.90
2018-08-28T05:01:33.381Z,93.90
2018-08-28T05:04:03.581Z,94.00
2018-08-28T05:06:33.768Z,94.10
2018-08-28T05:09:04.656Z,93.60
2018-08-28T05:11:35.074Z,93.60
2018-08-28T05:14:05.921Z,93.60
2018-08-28T05:16:36.648Z,94.00
2018-08-28T05:19:06.868Z,93.70
2018-08-28T05:21:38.322Z,93.70
2018-08-28T05:24:09.338Z,93.80
2018-08-28T05:26:40.531Z,93.70
2018-08-28T05:29:12.584Z,93.70
2018-08-28T05:31:43.623Z,93.70
2018-08-28T05:34:13.804Z,93.70
2018-08-28T05:36:44.637Z,93.80
2018-08-28T05:39:14.830Z,93.90
2018-08-28T05:41:47.280Z,93.80
2018-08-28T05:44:18.840Z,94.10
2018-08-28T05:46:49.096Z,94.20
2018-08-28T05:49:20.757Z,94.30
2018-08-28T05:51:51.543Z,94.20
2018-08-28T05:54:22.452Z,94.00
2018-08-28T05:56:53.204Z,94.20
2018-08-28T05:59:23.413Z,94.00
2018-08-28T06:01:53.672Z,93.80
2018-08-28T06:04:26.285Z,93.70
2018-08-28T06:06:57.133Z,94.10
2018-08-28T06:09:27.913Z,94.00
2018-08-28T06:11:58.130Z,93.60
2018-08-28T06:14:29.092Z,93.60
2018-08-28T06:16:59.280Z,93.30
2018-08-28T06:19:30.752Z,93.40
2018-08-28T06:22:00.924Z,93.40
2018-08-28T06:24:31.544Z,93.10
2018-08-28T06:27:05.053Z,93.30
2018-08-28T06:29:37.114Z,92.90
2018-08-28T06:32:07.266Z,93.50
2018-08-28T06:34:37.916Z,93.70
2018-08-28T06:37:09.584Z,93.00
2018-08-28T06:39:41.338Z,93.10
2018-08-28T06:42:11.561Z,93.10
2018-08-28T06:44:42.944Z,92.80
2018-08-28T06:47:14.222Z,92.60
2018-08-28T06:49:44.995Z,92.80
2018-08-28T06:52:16.911Z,92.10
2018-08-28T06:54:47.606Z,92.70
2018-08-28T06:57:18.324Z,92.20
2018-08-28T06:59:49.422Z,92.10
2018-08-28T07:02:20.712Z,92.50
2018-08-28T07:04:52.092Z,93.00
2018-08-28T07:07:22.964Z,92.80
2018-08-28T07:09:54.420Z,93.10
2018-08-28T07:12:24.828Z,92.80
2018-08-28T07:14:55.276Z,92.80
2018-08-28T07:17:27.908Z,93.10
2018-08-28T07:19:59.612Z,93.10
2018-08-28T07:22:32.433Z,92.10
2018-08-28T07:25:02.649Z,92.20
2018-08-28T07:27:33.272Z,91.80
2018-08-28T07:30:04.608Z,93.20
2018-08-28T07:32:34.835Z,91.80
2018-08-28T07:35:06.592Z,91.70
2018-08-28T07:37:37.485Z,91.80
2018-08-28T07:40:08.980Z,91.90
2018-08-28T07:42:39.849Z,91.30
2018-08-28T07:45:10.583Z,91.20
2018-08-28T07:47:40.760Z,91.70
2018-08-28T07:50:10.970Z,91.60
2018-08-28T07:52:41.139Z,91.30
2018-08-28T07:55:12.494Z,91.70
2018-08-28T07:57:44.004Z,91.60
2018-08-28T08:00:14.960Z,91.30
2018-08-28T08:02:45.812Z,91.40
2018-08-28T08:05:16.002Z,91.60
2018-08-28T08:07:47.005Z,91.40
2018-08-28T08:10:17.605Z,90.90
2018-08-28T08:12:48.558Z,91.00
2018-08-28T08:15:19.073Z,90.80
2018-08-28T08:17:50.453Z,90.90
2018-08-28T08:20:20.637Z,90.90
2018-08-28T08:22:50.813Z,90.90
2018-08-28T08:25:22.240Z,90.20
2018-08-28T08:27:53.615Z,90.20
2018-08-28T08:30:24.401Z,89.70
2018-08-28T08:32:54.629Z,90.10
2018-08-28T08:35:27.102Z,90.40
2018-08-28T08:37:58.108Z,90.50
2018-08-28T08:40:29.404Z,90.00
2018-08-28T08:43:00.927Z,89.50
2018-08-28T08:45:32.788Z,89.50
2018-08-28T08:48:03.029Z,89.40
2018-08-28T08:50:33.953Z,88.30
2018-08-28T08:53:04.107Z,88.10
2018-08-28T08:55:34.809Z,87.00
2018-08-28T08:58:05.744Z,86.80
2018-08-28T09:00:36.809Z,84.90
2018-08-28T09:03:07.025Z,85.30
2018-08-28T09:05:37.833Z,84.00
2018-08-28T09:08:07.999Z,84.70
2018-08-28T09:10:38.107Z,84.70
2018-08-28T09:13:09.844Z,84.50
2018-08-28T09:15:40.748Z,82.80
2018-08-28T09:18:11.092Z,85.30
2018-08-28T09:20:41.859Z,83.60
2018-08-28T09:23:12.777Z,83.40
2018-08-28T09:25:44.260Z,82.80
2018-08-28T09:28:14.593Z,84.40
2018-08-28T09:30:44.764Z,84.60
2018-08-28T09:33:14.945Z,84.60
2018-08-28T09:35:45.902Z,84.10
2018-08-28T09:38:16.134Z,82.50
2018-08-28T09:40:46.285Z,82.50
2018-08-28T09:43:17.872Z,82.80
2018-08-28T09:45:48.017Z,84.00
2018-08-28T09:48:18.849Z,83.70
2018-08-28T09:50:50.169Z,84.70
2018-08-28T09:53:20.512Z,83.60
2018-08-28T09:55:51.805Z,82.20
2018-08-28T09:58:22.076Z,80.80
2018-08-28T10:00:57.472Z,79.80
2018-08-28T10:03:28.072Z,80.70
2018-08-28T10:05:59.038Z,77.30
2018-08-28T10:08:31.207Z,77.50
2018-08-28T10:11:01.513Z,77.70
2018-08-28T10:13:31.689Z,78.00
2018-08-28T10:16:02.393Z,77.20
2018-08-28T10:18:33.346Z,76.40
2018-08-28T10:21:04.044Z,76.70
2018-08-28T10:23:36.118Z,75.80
2018-08-28T10:26:07.122Z,76.10
2018-08-28T10:28:37.838Z,76.00
2018-08-28T10:31:07.973Z,76.30
2018-08-28T10:33:38.744Z,76.00
2018-08-28T10:36:10.655Z,75.20
2018-08-28T10:38:40.823Z,76.20
2018-08-28T10:41:13.496Z,75.90
2018-08-28T10:43:44.209Z,76.30
2018-08-28T10:46:15.166Z,77.10
2018-08-28T10:48:45.296Z,75.90
2018-08-28T10:51:16.553Z,76.10
2018-08-28T10:53:46.960Z,78.10
2018-08-28T10:56:18.653Z,78.50
2018-08-28T10:58:48.863Z,79.80
2018-08-28T11:01:19.085Z,80.60
2018-08-28T11:03:49.308Z,79.30
2018-08-28T11:06:19.516Z,80.80
2018-08-28T11:08:51.099Z,80.00
2018-08-28T11:11:21.796Z,80.40
2018-08-28T11:13:51.921Z,80.30
2018-08-28T11:16:24.232Z,78.60
2018-08-28T11:18:55.220Z,79.40
2018-08-28T11:21:25.455Z,79.80
2018-08-28T11:23:55.656Z,79.00
2018-08-28T11:26:26.429Z,78.90
2018-08-28T11:28:58.116Z,77.00
2018-08-28T11:31:28.888Z,77.30
2018-08-28T11:33:59.234Z,78.30
2018-08-28T11:36:30.044Z,76.50
2018-08-28T11:39:00.233Z,75.70
2018-08-28T11:41:31.415Z,74.90
2018-08-28T11:44:01.564Z,74.00
2018-08-28T11:46:31.715Z,72.80
2018-08-28T11:49:01.888Z,74.50
2018-08-28T11:51:32.720Z,74.30
2018-08-28T11:54:03.134Z,74.70
2018-08-28T11:56:33.272Z,72.30
2018-08-28T11:59:03.405Z,73.20
2018-08-28T12:01:34.952Z,72.30
2018-08-28T12:04:05.165Z,72.80
2018-08-28T12:06:36.527Z,72.30
2018-08-28T12:09:08.009Z,71.50
2018-08-28T12:11:38.929Z,73.20
2018-08-28T12:14:10.463Z,71.90
2018-08-28T12:16:40.663Z,72.40
2018-08-28T12:19:10.972Z,71.00
2018-08-28T12:21:41.888Z,71.30
2018-08-28T12:24:13.756Z,71.80
2018-08-28T12:26:45.788Z,73.10
2018-08-28T12:29:16.744Z,73.90
2018-08-28T12:31:46.996Z,72.30
2018-08-28T12:34:17.680Z,71.10
2018-08-28T12:36:49.304Z,72.20
2018-08-28T12:39:20.225Z,73.20
2018-08-28T12:41:51.536Z,72.40
2018-08-28T12:44:22.180Z,71.60
2018-08-28T12:46:52.443Z,71.30
2018-08-28T12:49:25.966Z,72.10
2018-08-28T12:51:57.162Z,72.10
2018-08-28T12:54:27.334Z,73.10
2018-08-28T12:56:57.500Z,74.60
2018-08-28T12:59:27.675Z,71.80
2018-08-28T13:01:57.931Z,72.40
2018-08-28T13:04:28.145Z,74.00
2018-08-28T13:06:58.352Z,74.00
2018-08-28T13:09:28.508Z,73.50
2018-08-28T13:11:58.712Z,72.70
2018-08-28T13:14:29.548Z,73.90
2018-08-28T13:17:00.631Z,74.40
2018-08-28T13:19:31.746Z,74.10
2018-08-28T13:22:02.619Z,73.00
2018-08-28T13:24:32.892Z,73.50
2018-08-28T13:27:03.291Z,73.30
2018-08-28T13:29:33.727Z,73.40
2018-08-28T13:32:05.444Z,73.40
2018-08-28T13:34:35.686Z,71.80
2018-08-28T13:37:05.896Z,72.00
2018-08-28T13:39:36.719Z,71.70
2018-08-28T13:42:07.399Z,71.20
2018-08-28T13:44:38.153Z,71.80
2018-08-28T13:47:09.650Z,71.90
2018-08-28T13:49:39.769Z,72.20
2018-08-28T13:52:09.950Z,71.90
2018-08-28T13:54:41.078Z,73.00
2018-08-28T13:57:13.044Z,73.10
2018-08-28T13:59:43.197Z,72.70
2018-08-28T14:02:14.089Z,70.90
2018-08-28T14:04:44.590Z,73.00
2018-08-28T14:07:14.781Z,71.90
2018-08-28T14:09:46.803Z,72.90
2018-08-28T14:12:16.916Z,72.30
2018-08-28T14:14:47.533Z,71.80
2018-08-28T14:17:18.768Z,71.90
2018-08-28T14:19:51.056Z,71.60
2018-08-28T14:22:22.281Z,71.00
2018-08-28T14:24:54.061Z,71.80
2018-08-28T14:27:24.757Z,71.50
2018-08-28T14:29:54.961Z,72.00
2018-08-28T14:32:25.608Z,70.90
2018-08-28T14:34:55.761Z,71.20
2018-08-28T14:37:25.885Z,71.60
2018-08-28T14:39:56.027Z,72.10
2018-08-28T14:42:26.353Z,72.70
2018-08-28T14:44:57.216Z,72.40
2018-08-28T14:47:27.462Z,72.10
2018-08-28T14:49:59.415Z,72.10
2018-08-28T14:52:29.572Z,71.60
2018-08-28T14:54:59.705Z,72.50
2018-08-28T14:57:29.938Z,72.90
2018-08-28T15:00:00.084Z,73.40
2018-08-28T15:02:30.169Z,73.60
2018-08-28T15:05:02.032Z,73.70
2018-08-28T15:07:33.432Z,73.90
2018-08-28T15:10:03.683Z,74.40
2018-08-28T15:12:33.843Z,74.50
2018-08-28T15:15:04.097Z,75.60
2018-08-28T15:17:34.220Z,75.60
2018-08-28T15:20:04.489Z,75.00
2018-08-28T15:22:34.583Z,75.20
2018-08-28T15:25:04.937Z,74.70
2018-08-28T15:27:35.704Z,75.20
2018-08-28T15:30:05.964Z,74.60
2018-08-28T15:32:37.401Z,74.90
2018-08-28T15:35:08.490Z,74.80
2018-08-28T15:37:39.343Z,75.30
2018-08-28T15:40:09.864Z,74.80
2018-08-28T15:42:40.548Z,73.90
2018-08-28T15:45:10.768Z,73.90
2018-08-28T15:47:40.881Z,74.30
2018-08-28T15:50:11.915Z,73.90
2018-08-28T15:52:42.198Z,74.60
2018-08-28T15:55:13.108Z,75.20
2018-08-28T15:57:43.364Z,75.30
2018-08-28T16:00:14.349Z,76.20
2018-08-28T16:02:44.454Z,76.40
2018-08-28T16:05:15.265Z,76.00
2018-08-28T16:07:45.909Z,76.10
2018-08-28T16:10:16.076Z,76.10
2018-08-28T16:12:46.244Z,75.20
2018-08-28T16:15:16.443Z,76.60
2018-08-28T16:17:48.199Z,76.00
2018-08-28T16:20:18.375Z,77.20
2018-08-28T16:22:51.404Z,77.40
2018-08-28T16:25:22.248Z,77.50
2018-08-28T16:27:52.957Z,77.60
2018-08-28T16:30:23.853Z,77.70
2018-08-28T16:32:55.195Z,77.10
2018-08-28T16:35:25.459Z,77.90
2018-08-28T16:37:55.601Z,78.80
2018-08-28T16:40:26.185Z,78.80
2018-08-28T16:42:57.597Z,79.20
2018-08-28T16:45:27.729Z,79.00
2018-08-28T16:47:57.877Z,79.10
2018-08-28T16:50:28.113Z,79.30
2018-08-28T16:52:58.247Z,79.50
2018-08-28T16:55:28.434Z,80.00
2018-08-28T16:57:58.620Z,79.90
2018-08-28T17:00:30.293Z,80.30
2018-08-28T17:03:00.442Z,79.90
2018-08-28T17:05:32.144Z,80.30
2018-08-28T17:08:02.793Z,80.50
2018-08-28T17:10:33.643Z,80.50
2018-08-28T17:13:03.861Z,80.60
2018-08-28T17:15:34.056Z,80.80
2018-08-28T17:18:04.837Z,80.60
2018-08-28T17:20:35.053Z,80.70
2018-08-28T17:23:05.860Z,80.60
2018-08-28T17:25:37.019Z,80.90
2018-08-28T17:28:07.224Z,81.00
2018-08-28T17:30:37.343Z,81.50
2018-08-28T17:33:07.668Z,81.50
2018-08-28T17:35:37.744Z,81.40
2018-08-28T17:38:08.667Z,81.50
2018-08-28T17:40:38.923Z,81.30
2018-08-28T17:43:09.249Z,81.40
2018-08-28T17:45:39.561Z,81.80
2018-08-28T17:48:09.668Z,82.00
2018-08-28T17:50:40.535Z,82.00
2018-08-28T17:53:11.301Z,82.50
2018-08-28T17:55:42.924Z,83.20
2018-08-28T17:58:13.107Z,82.70
2018-08-28T18:00:43.334Z,82.70
2018-08-28T18:03:13.481Z,83.20
2018-08-28T18:05:43.656Z,83.10
2018-08-28T18:08:14.544Z,83.10
2018-08-28T18:10:44.720Z,83.20
2018-08-28T18:13:14.943Z,83.20
2018-08-28T18:15:45.337Z,83.60
2018-08-28T18:18:17.012Z,83.70
2018-08-28T18:20:47.104Z,84.10
2018-08-28T18:23:17.234Z,84.40
2018-08-28T18:25:47.328Z,84.70
2018-08-28T18:28:17.421Z,84.30
2018-08-28T18:30:47.529Z,84.10
2018-08-28T18:33:17.620Z,84.60
2018-08-28T18:35:47.763Z,85.00
2018-08-28T18:38:18.205Z,85.00
2018-08-28T18:40:48.293Z,85.70
2018-08-28T18:43:18.397Z,85.30
2018-08-28T18:45:48.471Z,85.90
2018-08-28T18:48:18.521Z,85.70
2018-08-28T18:50:48.628Z,85.50
2018-08-28T18:53:18.671Z,86.00
2018-08-28T18:55:48.720Z,86.60
2018-08-28T18:58:18.784Z,86.40
2018-08-28T19:00:48.897Z,86.20
2018-08-28T19:03:18.995Z,86.90
2018-08-28T19:05:49.108Z,86.40
2018-08-28T19:08:19.844Z,86.40
2018-08-28T19:10:49.816Z,86.70
2018-08-28T19:13:19.908Z,86.70
2018-08-28T19:15:49.954Z,86.90
2018-08-28T19:18:20.029Z,86.70
2018-08-28T19:20:50.187Z,86.70
2018-08-28T19:23:20.189Z,87.00
2018-08-28T19:25:50.431Z,87.20
2018-08-28T19:28:20.554Z,87.20
2018-08-28T19:30:50.585Z,87.00
2018-08-28T19:33:20.634Z,87.70
2018-08-28T19:35:50.694Z,87.80
2018-08-28T19:38:20.769Z,87.80
2018-08-28T19:40:50.898Z,87.90
2018-08-28T19:43:21.002Z,88.10
2018-08-28T19:45:51.068Z,88.90
2018-08-28T19:48:21.836Z,88.80
2018-08-28T19:50:51.928Z,88.40
2018-08-28T19:53:21.976Z,89.30
2018-08-28T19:55:52.068Z,89.80
2018-08-28T19:58:22.283Z,89.60
2018-08-28T20:00:52.394Z,89.70
2018-08-28T20:03:22.456Z,90.10
2018-08-28T20:05:52.678Z,90.20
2018-08-28T20:08:22.700Z,90.20
2018-08-28T20:10:52.885Z,90.20
2018-08-28T20:13:22.964Z,90.50
2018-08-28T20:15:53.025Z,90.80
2018-08-28T20:18:23.147Z,91.20
2018-08-28T20:20:53.269Z,90.70
2018-08-28T20:23:23.252Z,90.80
2018-08-28T20:25:53.353Z,90.50
2018-08-28T20:28:23.403Z,90.20
2018-08-28T20:30:53.493Z,90.50
2018-08-28T20:33:24.353Z,90.70
2018-08-28T20:35:55.152Z,90.50
2018-08-28T20:38:25.246Z,90.60
2018-08-28T20:40:55.312Z,90.90
2018-08-28T20:43:25.389Z,90.90
2018-08-28T20:45:55.416Z,90.50
2018-08-28T20:48:25.493Z,90.60
2018-08-28T20:50:55.564Z,90.50
2018-08-28T20:53:25.684Z,90.50
2018-08-28T20:55:55.660Z,90.40
2018-08-28T20:58:25.741Z,90.60
2018-08-28T21:00:55.821Z,90.50
2018-08-28T21:03:26.378Z,90.50
2018-08-28T21:05:56.416Z,90.50
2018-08-28T21:08:26.497Z,90.40
2018-08-28T21:10:56.894Z,90.10
2018-08-28T21:13:27.117Z,90.30
2018-08-28T21:15:57.154Z,90.20
2018-08-28T21:18:27.202Z,90.20
2018-08-28T21:20:57.233Z,90.60
2018-08-28T21:23:27.273Z,90.40
2018-08-28T21:25:57.530Z,90.60
2018-08-28T21:28:27.661Z,90.50
2018-08-28T21:30:57.752Z,91.20
2018-08-28T21:33:27.765Z,91.70
2018-08-28T21:35:57.808Z,92.40
2018-08-28T21:38:27.858Z,92.20
2018-08-28T21:40:57.913Z,91.60
2018-08-28T21:43:27.981Z,91.30
2018-08-28T21:45:58.219Z,91.20
2018-08-28T21:48:28.239Z,91.40
2018-08-28T21:50:58.315Z,91.50
2018-08-28T21:53:28.333Z,92.00
2018-08-28T21:55:58.449Z,91.60
2018-08-28T21:58:28.466Z,91.20
2018-08-28T22:01:03.835Z,91.30
2018-08-28T22:03:33.881Z,91.60
2018-08-28T22:06:03.945Z,91.50
2018-08-28T22:08:33.984Z,91.30
2018-08-28T22:11:04.089Z,91.00
2018-08-28T22:13:34.139Z,91.10
2018-08-28T22:16:04.187Z,90.60
2018-08-28T22:18:34.217Z,90.70
2018-08-28T22:21:04.342Z,90.90
2018-08-28T22:23:34.354Z,90.80
2018-08-28T22:26:04.773Z,90.60
2018-08-28T22:28:34.778Z,90.70
2018-08-28T22:31:04.921Z,90.80
2018-08-28T22:33:34.945Z,91.10
2018-08-28T22:36:05.077Z,91.80
2018-08-28T22:38:35.125Z,91.40
2018-08-28T22:41:05.173Z,91.50
2018-08-28T22:43:35.200Z,91.30
2018-08-28T22:46:05.809Z,91.00
2018-08-28T22:48:35.829Z,91.40
2018-08-28T22:51:05.909Z,91.00
2018-08-28T22:53:35.925Z,90.70
2018-08-28T22:56:06.182Z,90.80
2018-08-28T22:58:36.205Z,90.50
2018-08-28T23:01:06.261Z,90.60
2018-08-28T23:03:36.357Z,90.70
2018-08-28T23:06:06.403Z,90.60
2018-08-28T23:08:36.457Z,90.80
2018-08-28T23:11:06.465Z,91.00
2018-08-28T23:13:36.570Z,91.00
2018-08-28T23:16:06.642Z,90.80
2018-08-28T23:18:36.681Z,90.70
2018-08-28T23:21:06.746Z,90.90
2018-08-28T23:23:36.749Z,90.70
2018-08-28T23:26:06.866Z,90.60
2018-08-28T23:28:36.842Z,90.70
2018-08-28T23:31:06.910Z,91.30
2018-08-28T23:33:36.974Z,90.80
2018-08-28T23:36:07.025Z,90.70
2018-08-28T23:38:37.093Z,90.80
2018-08-28T23:41:07.171Z,90.60
2018-08-28T23:43:37.262Z,90.40
2018-08-28T23:46:07.317Z,90.80
2018-08-28T23:48:37.385Z,92.20
2018-08-28T23:51:07.539Z,91.50
2018-08-28T23:53:37.685Z,92.10
2018-08-28T23:56:07.906Z,92.30
2018-08-28T23:58:37.979Z,91.40
